Time;durP1;ratioP1;P1;durP2;ratioP2;P2;SDS_P1;SDS_P2;PMS_P1;PMS_P2;Temp;Humidity;BMP_temperature;BMP_pressure;BME280_temperature;BME280_humidity;BME280_pressure;Samples;Min_cycle;Max_cycle;Signal;HPM_P1;HPM_P2
2024/01/08 00:01:54;;;;;;;19.50;10.07;;;-1.70;99.90;;;;;;5083098;28;20554;-61
2024/01/08 00:04:23;;;;;;;15.10;9.00;;;-1.80;99.90;;;;;;5082941;28;20281;-61
2024/01/08 00:06:51;;;;;;;15.70;9.27;;;-1.80;99.90;;;;;;5085700;28;20673;-61
2024/01/08 00:09:20;;;;;;;18.10;8.90;;;-1.90;99.90;;;;;;5085908;28;20223;-61
2024/01/08 00:11:49;;;;;;;16.83;9.10;;;-1.90;99.90;;;;;;5084768;28;20287;-61
2024/01/08 00:14:19;;;;;;;15.43;9.20;;;-2.00;99.90;;;;;;5081016;28;20235;-59
2024/01/08 00:16:47;;;;;;;15.20;9.27;;;-2.00;99.90;;;;;;5084337;28;20219;-59
2024/01/08 00:19:16;;;;;;;17.53;9.50;;;-2.00;99.90;;;;;;5078932;28;20215;-59
2024/01/08 00:21:44;;;;;;;19.33;9.20;;;-2.00;99.90;;;;;;5078244;28;20223;-60
2024/01/08 00:24:12;;;;;;;17.00;9.53;;;-2.00;99.90;;;;;;5077638;28;20222;-60
2024/01/08 00:26:41;;;;;;;18.33;9.93;;;-2.00;99.90;;;;;;5079429;28;20235;-60
2024/01/08 00:29:10;;;;;;;14.67;9.20;;;-2.00;99.90;;;;;;5082639;28;20210;-60
2024/01/08 00:31:40;;;;;;;20.67;9.70;;;-2.10;99.90;;;;;;5082480;28;20200;-60
2024/01/08 00:34:08;;;;;;;16.00;9.23;;;-2.10;99.90;;;;;;5082593;28;20219;-60
2024/01/08 00:36:36;;;;;;;21.10;10.03;;;-2.10;99.90;;;;;;5080359;28;20229;-60
2024/01/08 00:39:05;;;;;;;17.33;9.77;;;-2.10;99.90;;;;;;5087036;28;20302;-60
2024/01/08 00:41:33;;;;;;;17.67;8.97;;;-2.10;99.90;;;;;;5083834;28;20711;-60
2024/01/08 00:44:01;;;;;;;18.07;9.23;;;-2.20;99.90;;;;;;5088247;28;20191;-59
2024/01/08 00:46:29;;;;;;;17.17;8.80;;;-2.20;99.90;;;;;;5085580;28;20816;-60
2024/01/08 00:48:59;;;;;;;14.37;8.83;;;-2.20;99.90;;;;;;5084301;28;20686;-60
2024/01/08 00:51:28;;;;;;;17.77;8.73;;;-2.10;99.90;;;;;;5082003;28;20220;-59
2024/01/08 00:53:56;;;;;;;13.77;8.50;;;-2.10;99.90;;;;;;5086473;28;20222;-60
2024/01/08 00:56:24;;;;;;;14.00;8.70;;;-2.00;99.90;;;;;;5083802;28;20270;-59
2024/01/08 00:58:53;;;;;;;14.93;8.47;;;-1.90;99.90;;;;;;5091159;28;20195;-60
2024/01/08 01:01:21;;;;;;;17.77;9.37;;;-1.80;99.90;;;;;;5087584;28;20313;-60
2024/01/08 01:03:49;;;;;;;16.50;8.97;;;-1.80;99.90;;;;;;5082983;27;20592;-58
2024/01/08 01:06:22;;;;;;;14.80;8.43;;;-1.70;99.90;;;;;;5085586;28;20268;-60
2024/01/08 01:08:50;;;;;;;13.43;8.57;;;-1.70;99.90;;;;;;5086161;28;20250;-60
2024/01/08 01:11:19;;;;;;;16.80;10.07;;;-1.60;99.90;;;;;;5086279;28;20632;-59
2024/01/08 01:13:48;;;;;;;15.10;8.57;;;-1.60;99.90;;;;;;5087000;28;20222;-59
2024/01/08 01:16:16;;;;;;;16.97;8.57;;;-1.60;99.90;;;;;;5086505;28;20637;-59
2024/01/08 01:18:44;;;;;;;14.63;7.47;;;-1.50;99.90;;;;;;5083343;28;20230;-60
2024/01/08 01:21:22;;;;;;;11.97;6.63;;;-1.50;99.90;;;;;;5087867;28;20324;-60
2024/01/08 01:23:51;;;;;;;8.10;6.73;;;-1.50;99.90;;;;;;5084669;28;20737;-60
2024/01/08 01:26:19;;;;;;;12.40;7.07;;;-1.50;99.90;;;;;;5086148;28;20219;-60
2024/01/08 01:28:48;;;;;;;9.00;6.70;;;-1.40;99.90;;;;;;5086589;28;20211;-60
2024/01/08 01:31:16;;;;;;;9.73;6.87;;;-1.50;99.90;;;;;;5085307;28;20264;-59
2024/01/08 01:33:44;;;;;;;10.50;7.07;;;-1.50;99.90;;;;;;5087003;28;20220;-60
2024/01/08 01:36:12;;;;;;;11.17;6.93;;;-1.50;99.90;;;;;;5084096;28;20276;-60
2024/01/08 01:38:42;;;;;;;10.70;6.83;;;-1.50;99.90;;;;;;5087569;28;20219;-60
2024/01/08 01:41:11;;;;;;;7.73;6.77;;;-1.50;99.90;;;;;;5086732;28;20202;-59
2024/01/08 01:43:40;;;;;;;9.00;7.33;;;-1.50;99.90;;;;;;5082722;28;20720;-59
2024/01/08 01:46:18;;;;;;;12.23;7.40;;;-1.50;99.90;;;;;;5087200;28;20219;-59
2024/01/08 01:48:46;;;;;;;12.67;7.23;;;-1.50;99.90;;;;;;5083923;28;20224;-59
2024/01/08 01:51:15;;;;;;;10.20;6.90;;;-1.50;99.90;;;;;;5083835;28;21077;-59
2024/01/08 01:53:46;;;;;;;10.10;7.37;;;-1.50;99.90;;;;;;5081356;28;20224;-60
2024/01/08 01:56:14;;;;;;;9.83;7.43;;;-1.50;99.90;;;;;;5088035;28;20196;-59
2024/01/08 01:58:43;;;;;;;12.07;6.93;;;-1.50;99.90;;;;;;5086758;28;20191;-60
2024/01/08 02:01:12;;;;;;;11.20;7.53;;;-1.50;99.90;;;;;;5085082;27;20215;-60
2024/01/08 02:03:41;;;;;;;12.83;7.43;;;-1.50;99.90;;;;;;5088012;28;20235;-60
2024/01/08 02:06:12;;;;;;;9.93;7.53;;;-1.50;99.90;;;;;;5086714;28;20234;-60
2024/01/08 02:08:40;;;;;;;10.47;7.33;;;-1.50;99.90;;;;;;5082443;28;20234;-60
2024/01/08 02:11:10;;;;;;;11.07;7.20;;;-1.50;99.90;;;;;;5085749;27;20924;-60
2024/01/08 02:13:38;;;;;;;11.03;7.93;;;-1.40;99.90;;;;;;5083519;28;20627;-60
2024/01/08 02:16:07;;;;;;;12.57;8.63;;;-1.50;99.90;;;;;;5083507;28;20222;-60
2024/01/08 02:18:35;;;;;;;19.60;10.40;;;-1.50;99.90;;;;;;5087647;28;20234;-59
2024/01/08 02:21:04;;;;;;;14.73;8.70;;;-1.50;99.90;;;;;;5083379;28;20218;-60
2024/01/08 02:23:34;;;;;;;19.13;10.50;;;-1.50;99.90;;;;;;5086916;28;20231;-60
2024/01/08 02:26:02;;;;;;;29.83;13.80;;;-1.50;99.90;;;;;;5083670;28;20211;-60
2024/01/08 02:28:31;;;;;;;21.30;10.20;;;-1.50;99.90;;;;;;5084114;28;20207;-60
2024/01/08 02:31:00;;;;;;;13.10;8.37;;;-1.50;99.90;;;;;;5083916;28;20829;-60
2024/01/08 02:33:29;;;;;;;15.60;9.77;;;-1.40;99.90;;;;;;5081223;28;20224;-61
2024/01/08 02:35:59;;;;;;;10.37;7.83;;;-1.40;99.90;;;;;;5083107;28;20233;-60
2024/01/08 02:38:27;;;;;;;11.50;7.80;;;-1.40;99.90;;;;;;5081354;28;20242;-60
2024/01/08 02:40:57;;;;;;;11.47;8.60;;;-1.40;99.90;;;;;;5082386;28;20456;-60
2024/01/08 02:43:26;;;;;;;12.70;8.47;;;-1.40;99.90;;;;;;4960856;28;20238;-60
2024/01/08 02:45:54;;;;;;;10.83;8.20;;;-1.40;99.90;;;;;;4977497;28;20590;-60
2024/01/08 02:48:22;;;;;;;9.73;8.27;;;-1.40;99.90;;;;;;5041038;28;20310;-60
2024/01/08 02:50:51;;;;;;;11.20;9.00;;;-1.40;99.90;;;;;;5082325;28;20234;-60
2024/01/08 02:53:19;;;;;;;13.70;9.47;;;-1.40;99.90;;;;;;5087019;28;20226;-60
2024/01/08 02:55:48;;;;;;;11.70;8.77;;;-1.40;99.90;;;;;;5084673;28;20275;-60
2024/01/08 02:58:18;;;;;;;10.73;8.60;;;-1.40;99.90;;;;;;5085844;28;20216;-60
2024/01/08 03:00:46;;;;;;;11.43;9.07;;;-1.40;99.90;;;;;;5084248;28;20619;-60
2024/01/08 03:03:14;;;;;;;12.47;9.80;;;-1.40;99.90;;;;;;5084607;28;20220;-60
2024/01/08 03:05:42;;;;;;;10.40;8.53;;;-1.40;99.90;;;;;;5087974;28;20227;-60
2024/01/08 03:08:11;;;;;;;16.90;9.57;;;-1.40;99.90;;;;;;5082321;28;20180;-60
2024/01/08 03:10:39;;;;;;;10.97;8.80;;;-1.40;99.90;;;;;;5088202;28;20245;-60
2024/01/08 03:13:07;;;;;;;10.00;8.47;;;-1.40;99.90;;;;;;5086005;28;20293;-60
2024/01/08 03:15:37;;;;;;;11.30;7.90;;;-1.40;99.90;;;;;;5088091;28;20310;-60
2024/01/08 03:18:05;;;;;;;9.83;7.63;;;-1.50;94.70;;;;;;5085477;28;20228;-60
2024/01/08 03:20:34;;;;;;;7.70;7.00;;;-1.50;89.60;;;;;;5084529;28;20231;-60
2024/01/08 03:23:02;;;;;;;13.33;7.40;;;-1.50;82.10;;;;;;5087506;28;20714;-59
2024/01/08 03:25:30;;;;;;;7.87;7.07;;;-1.60;79.10;;;;;;5087636;28;20191;-60
2024/01/08 03:27:59;;;;;;;8.17;7.47;;;-1.60;79.30;;;;;;5082465;28;20220;-60
2024/01/08 03:30:27;;;;;;;7.53;6.80;;;-1.60;83.30;;;;;;5088023;28;20246;-59
2024/01/08 03:32:58;;;;;;;8.23;6.73;;;-1.60;80.30;;;;;;5085120;28;20215;-60
2024/01/08 03:35:28;;;;;;;8.17;6.90;;;-1.60;77.40;;;;;;5085653;28;20323;-60
2024/01/08 03:37:56;;;;;;;6.83;6.13;;;-1.60;71.30;;;;;;5082737;28;20195;-60
2024/01/08 03:40:24;;;;;;;7.57;6.53;;;-1.60;68.50;;;;;;5081188;28;20598;-59
2024/01/08 03:42:53;;;;;;;10.30;6.70;;;-1.60;79.70;;;;;;5084345;28;20222;-60
2024/01/08 03:45:21;;;;;;;8.53;6.90;;;-1.60;75.40;;;;;;5083517;28;20222;-60
2024/01/08 03:47:49;;;;;;;6.83;6.17;;;-1.70;63.40;;;;;;5086147;28;20231;-60
2024/01/08 03:50:19;;;;;;;7.20;6.57;;;-1.60;77.70;;;;;;5084180;28;20236;-60
2024/01/08 03:52:47;;;;;;;6.77;5.93;;;-1.60;69.00;;;;;;5083693;28;20225;-60
2024/01/08 03:55:15;;;;;;;6.83;6.17;;;-1.60;67.60;;;;;;5086885;28;20563;-60
2024/01/08 03:57:44;;;;;;;8.63;6.80;;;-1.70;62.70;;;;;;5084233;28;20686;-60
2024/01/08 04:00:12;;;;;;;8.27;6.23;;;-1.70;65.70;;;;;;5085775;28;20215;-60
2024/01/08 04:02:41;;;;;;;9.20;7.10;;;-1.70;64.30;;;;;;5084012;28;20223;-60
2024/01/08 04:05:11;;;;;;;8.93;6.73;;;-1.70;68.00;;;;;;5085294;28;20238;-59
2024/01/08 04:07:41;;;;;;;10.07;7.07;;;-1.60;60.50;;;;;;5086417;28;20207;-60
2024/01/08 04:10:10;;;;;;;10.30;7.33;;;-1.60;66.90;;;;;;5084740;28;20334;-60
2024/01/08 04:12:38;;;;;;;9.50;7.60;;;-1.70;63.10;;;;;;5086398;28;20372;-60
2024/01/08 04:15:08;;;;;;;10.07;7.93;;;-1.70;68.90;;;;;;5089036;28;20222;-60
2024/01/08 04:17:36;;;;;;;8.80;7.57;;;-1.60;70.40;;;;;;5088410;28;20211;-60
2024/01/08 04:20:05;;;;;;;10.57;8.17;;;-1.60;78.20;;;;;;5089768;28;20188;-60
2024/01/08 04:22:33;;;;;;;11.33;8.27;;;-1.60;65.00;;;;;;5090240;28;20204;-60
2024/01/08 04:25:03;;;;;;;12.33;9.07;;;-1.70;56.40;;;;;;5087746;28;20592;-59
2024/01/08 04:27:31;;;;;;;13.07;9.07;;;-1.70;40.00;;;;;;5088245;28;20341;-60
2024/01/08 04:30:00;;;;;;;13.33;8.20;;;-1.60;40.50;;;;;;5091471;28;20229;-60
2024/01/08 04:32:28;;;;;;;10.83;7.57;;;-1.70;36.40;;;;;;5090998;28;21366;-60
2024/01/08 04:34:56;;;;;;;14.27;8.20;;;-1.60;26.00;;;;;;5090044;28;20559;-60
2024/01/08 04:37:24;;;;;;;11.43;7.10;;;-1.60;12.30;;;;;;5089437;28;20227;-60
2024/01/08 04:39:53;;;;;;;9.27;6.83;;;-1.60;12.70;;;;;;5086156;28;20326;-60
2024/01/08 04:42:22;;;;;;;7.73;6.43;;;-1.70;20.70;;;;;;5085075;28;20242;-60
2024/01/08 04:44:50;;;;;;;8.50;6.90;;;-1.70;9.60;;;;;;5087766;28;20224;-59
2024/01/08 04:47:19;;;;;;;8.43;6.37;;;-1.70;4.70;;;;;;5088355;28;20215;-60
2024/01/08 04:49:47;;;;;;;8.07;6.37;;;-1.60;3.60;;;;;;5087860;28;20187;-60
2024/01/08 04:52:15;;;;;;;9.60;7.07;;;-1.60;5.50;;;;;;5087917;28;20215;-60
2024/01/08 04:54:44;;;;;;;8.80;6.70;;;-1.70;3.60;;;;;;5085386;28;20216;-59
2024/01/08 04:57:12;;;;;;;8.13;6.87;;;-1.60;15.60;;;;;;5083863;28;20219;-60
2024/01/08 04:59:42;;;;;;;10.40;7.27;;;-1.60;16.60;;;;;;5087165;27;20219;-60
2024/01/08 05:02:10;;;;;;;9.13;6.97;;;-1.60;25.50;;;;;;5086590;28;20646;-60
2024/01/08 05:04:39;;;;;;;8.67;6.77;;;-1.60;23.00;;;;;;5086824;28;20224;-60
2024/01/08 05:07:07;;;;;;;7.87;6.87;;;-1.60;21.00;;;;;;5085390;28;20246;-60
2024/01/08 05:09:35;;;;;;;7.17;6.47;;;-1.60;20.60;;;;;;5086604;28;20308;-59
2024/01/08 05:12:04;;;;;;;9.10;6.87;;;-1.60;17.30;;;;;;5081194;28;20219;-60
2024/01/08 05:14:32;;;;;;;8.77;6.83;;;-1.70;26.80;;;;;;5083843;28;20219;-59
2024/01/08 05:17:02;;;;;;;9.60;6.90;;;-1.70;25.90;;;;;;5086469;28;20286;-60
2024/01/08 05:19:30;;;;;;;9.90;6.87;;;-1.70;28.80;;;;;;5088481;28;20199;-60
2024/01/08 05:21:58;;;;;;;8.30;6.87;;;-1.90;32.60;;;;;;5086254;28;20248;-60
2024/01/08 05:24:26;;;;;;;11.10;6.47;;;-1.90;36.30;;;;;;5087480;28;20219;-60
2024/01/08 05:26:55;;;;;;;10.37;6.70;;;-1.90;43.50;;;;;;5084536;28;20230;-60
2024/01/08 05:29:23;;;;;;;12.93;7.20;;;-2.00;45.50;;;;;;5088336;28;20227;-60
2024/01/08 05:31:51;;;;;;;8.63;7.03;;;-2.00;45.20;;;;;;5086534;28;20611;-60
2024/01/08 05:34:21;;;;;;;8.03;6.63;;;-2.00;53.20;;;;;;5084164;28;20216;-60
2024/01/08 05:36:49;;;;;;;8.00;6.93;;;-2.10;56.10;;;;;;5084338;28;20227;-61
2024/01/08 05:39:17;;;;;;;7.10;6.40;;;-2.20;57.10;;;;;;5088672;28;20216;-61
2024/01/08 05:41:46;;;;;;;10.47;6.60;;;-2.20;62.10;;;;;;5087224;28;20246;-61
2024/01/08 05:44:15;;;;;;;7.17;6.47;;;-2.20;69.40;;;;;;5089802;28;20215;-61
2024/01/08 05:46:43;;;;;;;9.90;7.37;;;-2.20;66.00;;;;;;5088403;28;20199;-61
2024/01/08 05:49:13;;;;;;;7.70;6.43;;;-2.20;74.20;;;;;;5087186;28;20227;-61
2024/01/08 05:51:43;;;;;;;10.37;6.37;;;-2.20;76.50;;;;;;5090021;28;20276;-61
2024/01/08 05:54:11;;;;;;;7.80;6.83;;;-2.30;76.60;;;;;;5089063;28;20207;-61
2024/01/08 05:56:39;;;;;;;8.90;6.40;;;-2.20;79.30;;;;;;5086779;28;20231;-61
2024/01/08 05:59:08;;;;;;;7.53;6.20;;;-2.20;80.30;;;;;;5087341;28;20192;-61
2024/01/08 06:01:36;;;;;;;11.40;6.67;;;-2.20;85.60;;;;;;5091271;28;20196;-59
2024/01/08 06:04:05;;;;;;;8.07;6.47;;;-2.20;93.40;;;;;;5086813;28;20582;-61
2024/01/08 06:06:33;;;;;;;9.50;7.10;;;-2.10;95.00;;;;;;5086191;28;20292;-61
2024/01/08 06:09:03;;;;;;;6.90;6.17;;;-2.10;94.50;;;;;;5085389;28;20213;-61
2024/01/08 06:11:32;;;;;;;8.30;6.70;;;-2.10;90.10;;;;;;5086569;28;20231;-61
2024/01/08 06:14:02;;;;;;;7.53;6.53;;;-2.10;92.00;;;;;;5083331;28;20195;-58
2024/01/08 06:16:35;;;;;;;10.67;7.20;;;-2.10;91.70;;;;;;5083058;28;20278;-59
2024/01/08 06:19:03;;;;;;;8.83;7.27;;;-2.10;90.10;;;;;;5088667;28;20218;-60
2024/01/08 06:21:32;;;;;;;9.50;6.57;;;-2.10;92.40;;;;;;5087140;28;20740;-60
2024/01/08 06:24:00;;;;;;;7.23;6.53;;;-2.10;92.80;;;;;;5088418;28;20305;-59
2024/01/08 06:26:31;;;;;;;8.00;6.73;;;-2.10;93.40;;;;;;5087303;28;20245;-60
2024/01/08 06:29:00;;;;;;;10.80;7.17;;;-2.10;97.70;;;;;;5085497;28;20250;-60
2024/01/08 06:31:28;;;;;;;10.40;6.90;;;-2.10;99.70;;;;;;5090328;28;20183;-60
2024/01/08 06:33:57;;;;;;;11.33;7.07;;;-2.00;99.40;;;;;;5080740;28;20618;-60
2024/01/08 06:36:25;;;;;;;11.07;7.47;;;-2.10;96.80;;;;;;5082466;28;20717;-61
2024/01/08 06:38:56;;;;;;;9.27;6.60;;;-2.10;98.90;;;;;;5087654;28;20276;-61
2024/01/08 06:41:24;;;;;;;8.87;7.13;;;-2.10;99.80;;;;;;5085610;28;20230;-60
2024/01/08 06:43:54;;;;;;;12.33;7.20;;;-2.00;99.90;;;;;;5082141;28;20192;-60
2024/01/08 06:46:22;;;;;;;9.70;7.00;;;-2.00;99.90;;;;;;5084978;28;20314;-60
2024/01/08 06:48:51;;;;;;;8.43;6.93;;;-2.10;99.90;;;;;;5083328;28;20226;-60
2024/01/08 06:51:19;;;;;;;11.87;7.57;;;-2.00;99.90;;;;;;5083295;28;20223;-60
2024/01/08 06:53:48;;;;;;;9.17;7.17;;;-2.00;99.60;;;;;;5087363;28;20219;-60
2024/01/08 06:56:17;;;;;;;8.93;6.53;;;-2.10;98.80;;;;;;5085569;28;22888;-60
2024/01/08 06:58:45;;;;;;;9.10;6.70;;;-2.10;99.90;;;;;;5089220;28;20211;-60
2024/01/08 07:01:15;;;;;;;14.37;6.60;;;-2.10;98.50;;;;;;5084343;27;20223;-60
2024/01/08 07:03:44;;;;;;;8.23;6.60;;;-2.00;99.30;;;;;;5081683;28;20300;-60
2024/01/08 07:06:13;;;;;;;9.53;6.63;;;-2.00;98.10;;;;;;5085042;28;20318;-60
2024/01/08 07:08:41;;;;;;;10.00;6.60;;;-2.00;98.00;;;;;;5082037;28;20219;-60
2024/01/08 07:11:19;;;;;;;10.33;6.43;;;-2.00;95.70;;;;;;5086952;27;20264;-60
2024/01/08 07:13:47;;;;;;;9.23;6.53;;;-2.00;95.50;;;;;;5086242;28;20184;-60
2024/01/08 07:16:18;;;;;;;12.17;7.07;;;-2.00;95.50;;;;;;5080176;28;20609;-60
2024/01/08 07:18:46;;;;;;;10.17;6.77;;;-2.00;93.90;;;;;;5081840;28;20219;-60
2024/01/08 07:21:16;;;;;;;10.97;6.57;;;-2.00;95.20;;;;;;5084823;28;20266;-60
2024/01/08 07:23:45;;;;;;;7.37;6.13;;;-2.00;94.70;;;;;;5082382;28;20254;-60
2024/01/08 07:26:14;;;;;;;7.03;5.77;;;-1.90;95.10;;;;;;5081328;28;20609;-60
2024/01/08 07:28:43;;;;;;;14.70;6.57;;;-1.90;96.00;;;;;;5079727;28;20199;-60
2024/01/08 07:31:12;;;;;;;10.07;6.53;;;-1.80;98.70;;;;;;5080926;28;20230;-60
2024/01/08 07:33:42;;;;;;;8.23;6.37;;;-1.90;96.50;;;;;;5075967;28;20223;-60
2024/01/08 07:36:11;;;;;;;8.90;6.73;;;-1.90;94.20;;;;;;5080706;28;20223;-60
2024/01/08 07:38:39;;;;;;;8.67;6.73;;;-1.90;92.80;;;;;;5083699;28;20221;-60
2024/01/08 07:41:08;;;;;;;9.07;6.17;;;-1.90;93.80;;;;;;5081251;28;20184;-60
2024/01/08 07:43:37;;;;;;;7.17;6.27;;;-1.90;98.20;;;;;;5082543;28;20287;-60
2024/01/08 07:46:06;;;;;;;14.23;7.27;;;-1.90;93.80;;;;;;5084894;28;20294;-60
2024/01/08 07:48:34;;;;;;;9.17;6.33;;;-1.90;94.80;;;;;;5083349;28;20215;-60
2024/01/08 07:51:05;;;;;;;9.30;6.73;;;-1.90;98.10;;;;;;5084527;28;20231;-60
2024/01/08 07:53:33;;;;;;;11.43;6.80;;;-1.90;95.60;;;;;;5082496;28;20224;-60
2024/01/08 07:56:01;;;;;;;13.97;7.20;;;-1.90;97.60;;;;;;5085650;28;20229;-60
2024/01/08 07:58:30;;;;;;;10.80;7.07;;;-1.90;99.30;;;;;;5083059;28;20214;-60
2024/01/08 08:01:07;;;;;;;8.80;6.90;;;-1.90;99.20;;;;;;5082587;28;20297;-60
2024/01/08 08:03:36;;;;;;;12.37;8.00;;;-1.90;98.70;;;;;;5077812;28;22649;-60
2024/01/08 08:06:06;;;;;;;11.03;7.10;;;-1.90;99.90;;;;;;5079992;28;20228;-60
2024/01/08 08:08:35;;;;;;;7.73;6.37;;;-1.90;99.20;;;;;;5078099;28;20222;-60
2024/01/08 08:11:06;;;;;;;10.07;6.80;;;-1.80;99.90;;;;;;5081097;28;20188;-58
2024/01/08 08:13:34;;;;;;;9.47;6.87;;;-1.80;99.90;;;;;;5082290;28;20200;-60
2024/01/08 08:16:03;;;;;;;10.10;7.13;;;-1.80;99.90;;;;;;5083823;28;20589;-61
2024/01/08 08:18:34;;;;;;;11.83;7.03;;;-1.80;99.90;;;;;;5079456;28;20214;-61
2024/01/08 08:21:05;;;;;;;8.90;7.00;;;-1.80;99.90;;;;;;5079555;28;20235;-61
2024/01/08 08:23:33;;;;;;;15.43;7.43;;;-1.70;99.90;;;;;;5082099;28;20227;-61
2024/01/08 08:26:02;;;;;;;7.93;7.13;;;-1.80;99.90;;;;;;5082167;28;20231;-61
2024/01/08 08:28:32;;;;;;;10.90;7.60;;;-1.70;99.90;;;;;;5082062;28;20670;-61
2024/01/08 08:31:00;;;;;;;11.33;7.60;;;-1.80;99.90;;;;;;5081673;28;20211;-61
2024/01/08 08:33:29;;;;;;;11.87;7.70;;;-1.80;99.90;;;;;;5087512;27;20226;-59
2024/01/08 08:35:57;;;;;;;15.13;7.40;;;-1.70;99.90;;;;;;5081712;28;20215;-59
2024/01/08 08:38:27;;;;;;;12.10;8.03;;;-1.70;99.90;;;;;;5080450;28;20220;-58
2024/01/08 08:40:55;;;;;;;12.07;7.93;;;-1.60;99.90;;;;;;5084161;28;20226;-59
2024/01/08 08:43:24;;;;;;;11.97;8.07;;;-1.60;99.90;;;;;;4958486;28;20220;-59
2024/01/08 08:45:52;;;;;;;15.70;8.13;;;-1.60;99.90;;;;;;4960886;28;20247;-59
2024/01/08 08:48:20;;;;;;;11.47;7.63;;;-1.60;99.90;;;;;;4961685;28;20229;-59
2024/01/08 08:50:49;;;;;;;12.07;8.30;;;-1.60;99.90;;;;;;4957236;28;20228;-59
2024/01/08 08:53:17;;;;;;;10.90;7.97;;;-1.60;99.90;;;;;;4958858;28;20240;-59
2024/01/08 08:55:47;;;;;;;10.60;7.10;;;-1.50;99.90;;;;;;4958180;28;20273;-61
2024/01/08 08:58:15;;;;;;;12.03;7.93;;;-1.50;99.90;;;;;;4956724;28;20729;-60
2024/01/08 09:00:43;;;;;;;12.83;8.50;;;-1.40;99.90;;;;;;4960706;28;20319;-59
2024/01/08 09:03:12;;;;;;;11.93;8.40;;;-1.40;99.90;;;;;;4973160;28;20223;-59
2024/01/08 09:05:40;;;;;;;14.37;8.73;;;-1.40;99.90;;;;;;4961713;28;20249;-59
2024/01/08 09:08:14;;;;;;;12.10;8.40;;;-1.40;99.90;;;;;;4965477;28;20207;-59
2024/01/08 09:10:42;;;;;;;15.57;8.43;;;-1.40;99.90;;;;;;4967933;28;20195;-60
2024/01/08 09:13:12;;;;;;;14.17;8.63;;;-1.40;99.90;;;;;;4972141;28;20658;-59
2024/01/08 09:15:40;;;;;;;13.47;8.37;;;-1.40;99.90;;;;;;4967594;28;20219;-60
2024/01/08 09:18:09;;;;;;;13.50;8.73;;;-1.30;99.90;;;;;;4962372;28;20289;-59
2024/01/08 09:20:37;;;;;;;15.03;8.27;;;-1.40;99.90;;;;;;4965625;28;20676;-60
2024/01/08 09:23:06;;;;;;;11.60;8.23;;;-1.40;99.90;;;;;;4964010;28;20291;-59
2024/01/08 09:25:34;;;;;;;12.70;8.70;;;-1.30;99.90;;;;;;4965156;28;20242;-60
2024/01/08 09:28:02;;;;;;;11.63;8.20;;;-1.30;99.90;;;;;;4969623;28;20241;-60
2024/01/08 09:30:32;;;;;;;13.40;9.53;;;-1.30;99.90;;;;;;4965157;28;20227;-59
2024/01/08 09:33:00;;;;;;;15.27;9.60;;;-1.20;99.90;;;;;;4963385;28;20711;-60
2024/01/08 09:35:28;;;;;;;15.97;9.60;;;-1.20;99.90;;;;;;4962847;28;20231;-60
2024/01/08 09:37:57;;;;;;;17.63;9.67;;;-1.20;99.90;;;;;;4966252;28;20303;-58
2024/01/08 09:40:25;;;;;;;13.67;9.17;;;-1.10;99.90;;;;;;4963431;28;20287;-59
2024/01/08 09:42:55;;;;;;;15.17;9.27;;;-1.10;99.90;;;;;;4962258;28;20694;-59
2024/01/08 09:45:26;;;;;;;14.37;9.60;;;-1.00;99.90;;;;;;4965618;28;20220;-60
2024/01/08 09:47:56;;;;;;;18.40;9.37;;;-1.00;99.90;;;;;;4959330;28;20268;-59
2024/01/08 09:50:26;;;;;;;17.20;10.70;;;-0.90;99.90;;;;;;4963109;28;20309;-60
2024/01/08 09:52:56;;;;;;;14.20;9.07;;;-0.70;99.90;;;;;;4962775;28;20204;-60
2024/01/08 09:55:24;;;;;;;18.20;9.67;;;-0.60;99.90;;;;;;4962332;28;20219;-60
2024/01/08 09:57:53;;;;;;;14.37;9.60;;;-0.70;99.20;;;;;;4962631;28;20223;-59
2024/01/08 10:00:22;;;;;;;12.43;8.70;;;-0.80;97.40;;;;;;4961628;28;20219;-60
2024/01/08 10:02:56;;;;;;;17.83;9.00;;;-0.80;98.90;;;;;;4962434;28;20752;-60
2024/01/08 10:05:28;;;;;;;15.33;9.57;;;-0.80;99.20;;;;;;4959649;28;20265;-60
2024/01/08 10:08:00;;;;;;;13.63;8.53;;;-0.80;99.90;;;;;;4963289;28;20230;-59
2024/01/08 10:10:29;;;;;;;15.80;9.23;;;-0.80;99.90;;;;;;5083634;28;20245;-60
2024/01/08 10:12:58;;;;;;;13.87;10.07;;;-0.70;99.90;;;;;;5088360;28;20693;-60
2024/01/08 10:15:27;;;;;;;13.60;8.70;;;-0.60;95.70;;;;;;5085571;28;20219;-59
2024/01/08 10:18:01;;;;;;;13.57;8.50;;;-0.60;91.80;;;;;;5082451;28;20225;-59
2024/01/08 10:20:31;;;;;;;17.03;8.57;;;-0.50;94.30;;;;;;5083165;28;20222;-59
2024/01/08 10:23:06;;;;;;;12.23;9.00;;;-0.50;84.60;;;;;;5084099;27;20581;-59
2024/01/08 10:25:35;;;;;;;11.03;8.20;;;-0.50;92.60;;;;;;5080612;28;20294;-59
2024/01/08 10:28:08;;;;;;;12.73;8.97;;;-0.30;98.10;;;;;;5079844;28;20224;-59
2024/01/08 10:30:37;;;;;;;14.13;9.20;;;-0.30;92.00;;;;;;5086247;28;20618;-59
2024/01/08 10:33:08;;;;;;;12.77;8.43;;;-0.20;94.30;;;;;;5085701;28;20234;-59
2024/01/08 10:35:38;;;;;;;10.53;8.43;;;-0.30;87.80;;;;;;5085131;28;20241;-60
2024/01/08 10:38:08;;;;;;;13.67;9.20;;;-0.40;91.90;;;;;;5084394;28;20196;-59
2024/01/08 10:40:37;;;;;;;11.83;8.60;;;-0.50;95.70;;;;;;5089903;28;20233;-60
2024/01/08 10:43:06;;;;;;;14.20;9.10;;;-0.60;95.80;;;;;;5088294;28;20239;-59
2024/01/08 10:45:34;;;;;;;12.30;8.83;;;-0.50;97.90;;;;;;5085132;28;20593;-59
2024/01/08 10:48:11;;;;;;;13.07;8.77;;;-0.60;96.70;;;;;;5084831;28;20230;-59
2024/01/08 10:50:40;;;;;;;14.07;9.20;;;-0.60;97.50;;;;;;5080351;28;20231;-59
2024/01/08 10:53:15;;;;;;;13.20;9.80;;;-0.50;97.30;;;;;;5080935;28;20548;-60
2024/01/08 10:55:44;;;;;;;10.50;8.43;;;-0.40;95.20;;;;;;5085581;28;20198;-59
2024/01/08 10:58:23;;;;;;;13.53;8.67;;;-0.30;99.30;;;;;;5082922;28;20242;-59
2024/01/08 11:00:52;;;;;;;11.23;8.70;;;-0.20;95.80;;;;;;5085279;28;20207;-59
2024/01/08 11:03:22;;;;;;;13.23;8.80;;;-0.20;98.40;;;;;;5084033;28;20750;-59
2024/01/08 11:05:52;;;;;;;12.70;8.87;;;-0.20;99.90;;;;;;5083713;28;20240;-59
2024/01/08 11:08:22;;;;;;;12.97;8.57;;;-0.40;99.90;;;;;;5081748;28;20272;-59
2024/01/08 11:10:51;;;;;;;18.50;10.33;;;-0.40;99.90;;;;;;5087372;28;20198;-60
2024/01/08 11:13:22;;;;;;;15.57;9.20;;;-0.30;99.90;;;;;;5088949;28;20314;-59
2024/01/08 11:15:51;;;;;;;14.73;8.60;;;-0.20;99.90;;;;;;5082595;28;20242;-59
2024/01/08 11:18:27;;;;;;;11.37;8.50;;;-0.20;96.30;;;;;;5083677;28;20223;-59
2024/01/08 11:21:01;;;;;;;14.17;8.13;;;-0.40;96.50;;;;;;5080063;28;20699;-59
2024/01/08 11:23:38;;;;;;;11.60;8.70;;;-0.30;99.80;;;;;;5083274;28;20285;-59
2024/01/08 11:26:14;;;;;;;26.87;13.20;;;-0.30;99.90;;;;;;5088435;28;20191;-59
2024/01/08 11:28:43;;;;;;;12.17;8.80;;;-0.30;99.60;;;;;;5082329;28;20195;-59
2024/01/08 11:31:47;;;;;;;13.20;8.80;;;-0.30;99.90;;;;;;5082504;28;20214;-59
2024/01/08 11:34:59;;;;;;;10.73;7.57;;;-0.50;98.60;;;;;;5086815;27;20223;-59
2024/01/08 11:37:34;;;;;;;9.90;7.90;;;-0.50;99.90;;;;;;5086280;28;20266;-59
2024/01/08 11:40:15;;;;;;;10.33;7.93;;;-0.60;97.50;;;;;;5083333;28;20280;-59
2024/01/08 11:42:45;;;;;;;10.33;7.73;;;-0.60;96.10;;;;;;5085740;28;20215;-59
2024/01/08 11:45:14;;;;;;;13.83;8.23;;;-0.60;98.70;;;;;;5085474;27;20292;-60
2024/01/08 11:47:43;;;;;;;12.17;8.17;;;-0.60;98.80;;;;;;5085788;28;22330;-59
2024/01/08 11:50:14;;;;;;;10.13;7.73;;;-0.40;99.90;;;;;;5082287;28;20290;-60
2024/01/08 11:52:43;;;;;;;11.17;7.77;;;-0.20;99.90;;;;;;5084513;28;20206;-59
2024/01/08 11:55:12;;;;;;;9.20;7.13;;;-0.30;76.30;;;;;;5082938;28;20219;-59
2024/01/08 11:57:41;;;;;;;10.93;7.23;;;-0.40;77.90;;;;;;5080149;28;20236;-60
2024/01/08 12:00:14;;;;;;;10.87;7.47;;;-0.30;83.30;;;;;;5087891;28;20216;-59
2024/01/08 12:02:42;;;;;;;11.87;7.50;;;-0.50;77.60;;;;;;5084052;28;20269;-59
2024/01/08 12:05:13;;;;;;;9.83;7.03;;;-0.60;68.80;;;;;;5085199;28;20272;-59
2024/01/08 12:07:43;;;;;;;9.87;7.17;;;-0.60;81.50;;;;;;5087666;28;20295;-59
2024/01/08 12:10:13;;;;;;;11.30;7.47;;;-0.50;82.00;;;;;;5075433;28;20215;-59
2024/01/08 12:12:41;;;;;;;9.23;7.23;;;-0.50;81.20;;;;;;5083342;28;20227;-60
2024/01/08 12:15:10;;;;;;;8.40;6.77;;;-0.50;76.90;;;;;;5084571;28;20289;-59
2024/01/08 12:17:39;;;;;;;9.63;7.07;;;-0.50;65.60;;;;;;5087200;27;20215;-60
2024/01/08 12:20:09;;;;;;;10.30;6.97;;;-0.50;60.50;;;;;;5084099;28;20265;-59
2024/01/08 12:22:38;;;;;;;11.27;7.57;;;-0.50;59.60;;;;;;5086953;28;20223;-59
2024/01/08 12:25:10;;;;;;;11.17;7.47;;;-0.50;72.50;;;;;;5081845;28;20311;-59
2024/01/08 12:27:40;;;;;;;14.10;7.30;;;-0.50;57.10;;;;;;5077922;28;20228;-59
2024/01/08 12:30:11;;;;;;;7.60;6.47;;;-0.50;56.60;;;;;;5083069;28;20216;-59
2024/01/08 12:32:39;;;;;;;9.90;6.93;;;-0.50;57.30;;;;;;5079915;28;20216;-59
2024/01/08 12:35:11;;;;;;;7.03;6.43;;;-0.50;52.90;;;;;;5087812;28;20200;-60
2024/01/08 12:37:44;;;;;;;7.53;6.70;;;-0.40;56.60;;;;;;5086712;28;20191;-59
2024/01/08 12:40:14;;;;;;;8.23;6.83;;;-0.40;44.70;;;;;;5089018;28;20223;-59
2024/01/08 12:42:43;;;;;;;10.40;8.27;;;-0.40;50.70;;;;;;5085903;28;20235;-60
2024/01/08 12:45:12;;;;;;;7.40;6.47;;;-0.30;61.30;;;;;;5087781;28;20219;-60
2024/01/08 12:47:40;;;;;;;13.83;8.20;;;-0.40;56.80;;;;;;5086582;28;20236;-59
2024/01/08 12:50:09;;;;;;;10.70;6.83;;;-0.30;68.60;;;;;;5089449;28;20190;-60
2024/01/08 12:52:37;;;;;;;7.30;6.50;;;-0.40;53.70;;;;;;5087779;28;20277;-60